Terminal Aerodrome Forecast
Issued by NWS

Home | Current Version | Previous Version | Text Only | Print | Product List | Glossary On
Versions: 1 2 3 4 5 6 7 8 9 10 11 12 13 14 15 16 17 18 19 20 21 22
000
FTUS46 KSEW 071502 AAA
TAFSEA
TAF AMD
KSEA 071502Z 0715/0818 24005KT P6SM OVC015
     FM071830 26007KT P6SM SCT250
     FM080000 30006KT P6SM BKN200
     FM080900 VRB03KT P6SM BKN150=

USA.gov is the U.S. government's official web portal to all federal, state and local government web resources and services.